Time,TemperatureF,DewpointF,PressureIn,WindDirection,WindDirectionDegrees,WindSpeedMPH,WindSpeedGustMPH,Humidity,HourlyPrecipIn,Conditions,Clouds,dailyrainin,SoftwareType,DateUTC
2013-02-27 00:00:00,37.5,31.3,-100.00,SE,138,2.7,12.8,78,0.08,,,0.00,WSDL version 423,2013-02-27 05:00:00,
2013-02-27 00:06:00,37.6,31.3,-100.00,WSW,239,3.7,13.2,78,-99.99,,,-99.99,WSDL version 423,2013-02-27 05:06:00,
2013-02-27 00:12:00,37.6,31.1,-100.00,NNW,332,1.7,13.2,77,0.13,,,0.04,WSDL version 423,2013-02-27 05:12:00,
2013-02-27 00:18:00,37.7,31.1,-100.00,West,270,2.3,8.5,77,0.13,,,0.04,WSDL version 423,2013-02-27 05:18:00,
2013-02-27 00:24:00,37.8,31.2,-100.00,SW,236,3.7,5.8,77,0.16,,,0.08,WSDL version 423,2013-02-27 05:24:00,
2013-02-27 00:30:00,37.6,31.1,-100.00,WNW,298,2.3,7.4,77,0.16,,,0.08,WSDL version 423,2013-02-27 05:30:00,
2013-02-27 00:33:00,37.7,31.1,-100.00,WNW,293,3.7,7.8,77,0.16,,,0.08,WSDL version 423,2013-02-27 05:33:00,
2013-02-27 00:36:00,37.6,31.1,-100.00,WSW,253,3.3,7.8,77,0.16,,,0.08,WSDL version 423,2013-02-27 05:36:00,
2013-02-27 00:42:00,37.6,31.1,-100.00,WSW,238,2.8,10.5,77,0.16,,,0.13,WSDL version 423,2013-02-27 05:42:00,
2013-02-27 00:48:00,37.6,31.4,-100.00,West,273,2.9,12.8,78,0.16,,,0.13,WSDL version 423,2013-02-27 05:48:00,
2013-02-27 00:54:00,37.6,31.4,-100.00,West,278,3.8,10.3,78,0.17,,,0.17,WSDL version 423,2013-02-27 05:54:00,
2013-02-27 01:00:00,37.6,31.4,-100.00,WSW,250,2.5,7.6,78,0.17,,,0.17,WSDL version 423,2013-02-27 06:00:00,
2013-02-27 01:06:00,37.6,31.4,-100.00,WSW,248,3.7,13.2,79,0.17,,,0.17,WSDL version 423,2013-02-27 06:06:00,
2013-02-27 01:12:00,37.6,31.7,-100.00,South,174,2.9,9.6,79,-99.99,,,-99.99,WSDL version 423,2013-02-27 06:12:00,
2013-02-27 01:18:00,37.6,31.7,-100.00,West,280,3.3,7.8,79,0.12,,,0.17,WSDL version 423,2013-02-27 06:18:00,
2013-02-27 01:24:00,37.6,31.6,-100.00,West,280,4.5,11.0,79,0.08,,,0.17,WSDL version 423,2013-02-27 06:24:00,
2013-02-27 01:30:00,37.4,31.6,-100.00,West,270,3.8,11.0,80,0.13,,,0.21,WSDL version 423,2013-02-27 06:30:00,
2013-02-27 01:36:00,37.4,31.8,-100.00,WNW,287,3.9,7.8,80,-99.99,,,-99.99,WSDL version 423,2013-02-27 06:36:00,
2013-02-27 01:42:00,37.4,32.1,-100.00,West,270,4.1,10.1,81,-99.99,,,-99.99,WSDL version 423,2013-02-27 06:42:00,
2013-02-27 01:48:00,37.4,32.2,-100.00,West,264,2.8,8.5,81,-99.99,,,-99.99,WSDL version 423,2013-02-27 06:48:00,
2013-02-27 01:54:00,37.4,32.3,-100.00,WSW,240,6.0,9.6,82,0.08,,,0.25,WSDL version 423,2013-02-27 06:54:00,
2013-02-27 02:00:00,37.4,32.5,-100.00,SSW,205,2.7,9.6,82,0.08,,,0.25,WSDL version 423,2013-02-27 07:00:00,
2013-02-27 02:06:00,37.4,32.6,-100.00,NW,312,4.1,9.4,83,-99.99,,,-99.99,WSDL version 423,2013-02-27 07:06:00,
2013-02-27 02:12:00,37.5,32.5,-100.00,WNW,296,3.5,9.4,82,0.13,,,0.29,WSDL version 423,2013-02-27 07:12:00,
2013-02-27 02:18:00,37.6,32.9,-100.00,NW,312,3.5,8.7,83,-99.99,,,-99.99,WSDL version 423,2013-02-27 07:18:00,
2013-02-27 02:24:00,37.6,33.2,-100.00,West,260,5.1,9.6,84,0.13,,,0.29,WSDL version 423,2013-02-27 07:24:00,
2013-02-27 02:30:00,37.6,33.3,-100.00,WNW,289,4.5,13.0,84,0.12,,,0.33,WSDL version 423,2013-02-27 07:30:00,
2013-02-27 02:36:00,37.6,33.4,-100.00,West,264,4.0,13.2,84,0.12,,,0.33,WSDL version 423,2013-02-27 07:36:00,
2013-02-27 02:42:00,37.6,33.3,-100.00,NW,307,3.2,13.2,84,-99.99,,,-99.99,WSDL version 423,2013-02-27 07:42:00,
2013-02-27 02:48:00,37.6,33.7,-100.00,SSW,203,5.0,13.0,86,-99.99,,,-99.99,WSDL version 423,2013-02-27 07:48:00,
2013-02-27 02:54:00,37.6,33.7,-100.00,SW,228,4.0,11.9,86,-99.99,,,-99.99,WSDL version 423,2013-02-27 07:54:00,
2013-02-27 03:00:00,37.6,33.6,-100.00,WNW,290,4.8,12.5,86,0.04,,,0.33,WSDL version 423,2013-02-27 08:00:00,
2013-02-27 03:06:00,37.8,33.7,-100.00,WNW,287,4.2,12.5,84,0.08,,,0.37,WSDL version 423,2013-02-27 08:06:00,
2013-02-27 03:12:00,37.8,33.6,-100.00,SSW,205,4.1,9.8,86,-99.99,,,-99.99,WSDL version 423,2013-02-27 08:12:00,
2013-02-27 03:18:00,37.9,33.9,-100.00,WSW,244,5.1,9.8,86,0.08,,,0.37,WSDL version 423,2013-02-27 08:18:00,
2013-02-27 03:24:00,37.9,34.0,-100.00,WNW,299,4.2,8.1,87,0.12,,,0.41,WSDL version 423,2013-02-27 08:24:00,
2013-02-27 03:30:00,37.9,34.3,-100.00,West,270,3.4,7.4,87,0.08,,,0.41,WSDL version 423,2013-02-27 08:30:00,
2013-02-27 03:36:00,37.9,34.3,-100.00,WSW,256,4.0,8.1,87,0.08,,,0.41,WSDL version 423,2013-02-27 08:36:00,
2013-02-27 03:42:00,38.0,34.4,-100.00,NW,310,4.5,14.1,87,0.08,,,0.41,WSDL version 423,2013-02-27 08:42:00,
2013-02-27 03:48:00,38.1,34.5,-100.00,WSW,256,4.9,14.8,87,-99.99,,,-99.99,WSDL version 423,2013-02-27 08:48:00,
2013-02-27 03:54:00,38.0,34.4,-100.00,West,280,5.2,14.8,87,-99.99,,,-99.99,WSDL version 423,2013-02-27 08:54:00,
2013-02-27 04:00:00,38.0,34.3,-100.00,WSW,256,3.9,11.4,87,0.17,,,0.50,WSDL version 423,2013-02-27 09:00:00,
2013-02-27 04:06:00,38.0,34.3,-100.00,West,264,4.1,11.4,87,-99.99,,,-99.99,WSDL version 423,2013-02-27 09:06:00,
2013-02-27 04:12:00,38.1,34.5,-100.00,NW,318,3.6,9.6,87,0.13,,,0.50,WSDL version 423,2013-02-27 09:12:00,
2013-02-27 04:18:00,38.1,34.5,-100.00,SW,219,4.8,8.1,87,-99.99,,,-99.99,WSDL version 423,2013-02-27 09:18:00,
2013-02-27 04:24:00,38.1,34.5,-100.00,WSW,250,4.0,11.9,87,0.13,,,0.54,WSDL version 423,2013-02-27 09:24:00,
2013-02-27 04:30:00,38.3,34.7,-100.00,SSW,205,1.5,11.9,87,0.17,,,0.58,WSDL version 423,2013-02-27 09:30:00,
2013-02-27 04:36:00,38.4,34.8,-100.00,West,276,3.2,6.0,87,-99.99,,,-99.99,WSDL version 423,2013-02-27 09:36:00,
2013-02-27 04:42:00,38.5,34.9,-100.00,WSW,256,2.9,7.8,87,0.17,,,0.58,WSDL version 423,2013-02-27 09:42:00,
2013-02-27 04:48:00,38.5,34.9,-100.00,SW,219,2.8,6.0,87,0.16,,,0.62,WSDL version 423,2013-02-27 09:48:00,
2013-02-27 04:54:00,38.6,35.0,-100.00,WNW,285,4.0,10.1,87,0.16,,,0.62,WSDL version 423,2013-02-27 09:54:00,
2013-02-27 05:00:00,38.7,35.0,-100.00,West,278,3.9,10.1,87,0.12,,,0.62,WSDL version 423,2013-02-27 10:00:00,
2013-02-27 05:06:00,38.7,35.4,-100.00,WNW,290,3.0,10.3,88,0.17,,,0.67,WSDL version 423,2013-02-27 10:06:00,
2013-02-27 05:12:00,38.8,35.5,-100.00,NE,48,3.8,7.4,88,0.17,,,0.67,WSDL version 423,2013-02-27 10:12:00,
2013-02-27 05:18:00,38.9,35.6,-100.00,WSW,242,5.2,12.1,88,0.16,,,0.70,WSDL version 423,2013-02-27 10:18:00,
2013-02-27 05:24:00,39.0,35.7,-100.00,NE,39,3.1,12.1,88,0.16,,,0.70,WSDL version 423,2013-02-27 10:24:00,
2013-02-27 05:30:00,39.2,35.9,-100.00,WNW,287,5.2,11.4,88,0.12,,,0.70,WSDL version 423,2013-02-27 10:30:00,
2013-02-27 05:36:00,39.2,35.9,-100.00,SSW,208,3.7,11.4,88,0.12,,,0.70,WSDL version 423,2013-02-27 10:36:00,
2013-02-27 05:42:00,39.4,36.1,-100.00,NW,315,3.4,8.5,88,-99.99,,,-99.99,WSDL version 423,2013-02-27 10:42:00,
2013-02-27 05:48:00,39.5,36.2,-100.00,West,268,5.9,19.9,88,0.08,,,0.70,WSDL version 423,2013-02-27 10:48:00,
2013-02-27 05:54:00,39.7,36.4,-100.00,WNW,290,3.6,12.1,88,0.13,,,0.75,WSDL version 423,2013-02-27 10:54:00,
2013-02-27 06:00:00,39.8,36.5,-100.00,West,281,5.0,12.3,88,0.08,,,0.75,WSDL version 423,2013-02-27 11:00:00,
2013-02-27 06:06:00,39.9,36.7,-100.00,West,262,3.9,12.3,88,0.08,,,0.75,WSDL version 423,2013-02-27 11:06:00,
2013-02-27 06:12:00,40.2,37.1,-100.00,West,270,4.7,12.8,89,0.08,,,0.75,WSDL version 423,2013-02-27 11:12:00,
2013-02-27 06:18:00,40.3,37.3,-100.00,WNW,293,4.3,12.8,89,0.04,,,0.75,WSDL version 423,2013-02-27 11:18:00,
2013-02-27 06:24:00,40.4,37.3,-100.00,West,281,3.4,8.1,89,0.04,,,0.75,WSDL version 423,2013-02-27 11:24:00,
2013-02-27 06:30:00,40.5,37.4,-100.00,WSW,255,3.7,12.1,89,-99.99,,,-99.99,WSDL version 423,2013-02-27 11:30:00,
2013-02-27 06:36:00,40.6,37.6,-100.00,West,270,5.4,12.3,89,-99.99,,,-99.99,WSDL version 423,2013-02-27 11:36:00,
2013-02-27 06:42:00,40.6,37.5,-100.00,WSW,242,3.9,12.3,88,0.08,,,0.79,WSDL version 423,2013-02-27 11:42:00,
2013-02-27 06:48:00,40.8,37.6,-100.00,West,259,4.1,8.7,89,0.13,,,0.83,WSDL version 423,2013-02-27 11:48:00,
2013-02-27 06:54:00,40.9,37.7,-100.00,ESE,110,1.8,7.2,88,0.08,,,0.83,WSDL version 423,2013-02-27 11:54:00,
2013-02-27 07:00:00,41.0,37.7,-100.00,WSW,254,3.4,7.2,88,0.08,,,0.83,WSDL version 423,2013-02-27 12:00:00,
2013-02-27 07:06:00,41.0,37.7,-100.00,West,262,4.0,7.2,88,0.08,,,0.83,WSDL version 423,2013-02-27 12:06:00,
2013-02-27 07:12:00,41.2,37.8,-100.00,SW,225,3.1,9.2,88,-99.99,,,-99.99,WSDL version 423,2013-02-27 12:12:00,
2013-02-27 07:18:00,41.2,37.8,-100.00,WNW,298,4.2,10.3,88,-99.99,,,-99.99,WSDL version 423,2013-02-27 12:18:00,
2013-02-27 07:24:00,41.4,38.0,-100.00,WSW,256,3.7,10.3,88,0.12,,,0.87,WSDL version 423,2013-02-27 12:24:00,
2013-02-27 07:30:00,41.5,38.2,-100.00,West,267,3.5,7.2,88,0.17,,,0.91,WSDL version 423,2013-02-27 12:30:00,
2013-02-27 07:36:00,41.6,38.3,-100.00,WSW,243,3.0,8.9,88,-99.99,,,-99.99,WSDL version 423,2013-02-27 12:36:00,
2013-02-27 07:42:00,41.7,38.5,-100.00,NW,318,3.4,8.9,89,-99.99,,,-99.99,WSDL version 423,2013-02-27 12:42:00,
2013-02-27 07:48:00,41.9,38.8,-100.00,WNW,289,2.9,12.5,88,-99.99,,,-99.99,WSDL version 423,2013-02-27 12:48:00,
2013-02-27 07:54:00,42.1,38.7,-100.00,WNW,293,2.4,12.5,88,-99.99,,,-99.99,WSDL version 423,2013-02-27 12:54:00,
2013-02-27 08:00:00,42.1,38.7,-100.00,SW,225,2.8,8.5,88,0.08,,,0.91,WSDL version 423,2013-02-27 13:00:00,
2013-02-27 08:06:00,42.3,39.0,-100.00,WNW,289,5.1,8.1,89,0.12,,,0.95,WSDL version 423,2013-02-27 13:06:00,
2013-02-27 08:12:00,42.3,39.2,-100.00,West,264,2.6,7.6,88,-99.99,,,-99.99,WSDL version 423,2013-02-27 13:12:00,
2013-02-27 08:18:00,42.4,39.1,-100.00,WNW,290,3.2,10.7,88,0.08,,,0.95,WSDL version 423,2013-02-27 13:18:00,
2013-02-27 08:24:00,42.5,39.1,-100.00,WNW,298,3.2,7.6,88,-99.99,,,-99.99,WSDL version 423,2013-02-27 13:24:00,
2013-02-27 08:30:00,42.7,39.2,-100.00,NW,307,2.2,5.8,87,-99.99,,,-99.99,WSDL version 423,2013-02-27 13:30:00,
2013-02-27 08:36:00,42.8,39.3,-100.00,WSW,258,3.2,8.9,88,0.08,,,1.00,WSDL version 423,2013-02-27 13:36:00,
2013-02-27 08:42:00,42.8,39.3,-100.00,West,263,2.7,8.9,87,0.08,,,1.00,WSDL version 423,2013-02-27 13:42:00,
2013-02-27 08:48:00,43.0,39.6,-100.00,WNW,284,3.8,8.9,88,0.08,,,1.00,WSDL version 423,2013-02-27 13:48:00,
2013-02-27 08:54:00,43.0,39.6,-100.00,SW,235,3.6,8.9,88,0.08,,,1.00,WSDL version 423,2013-02-27 13:54:00,
2013-02-27 09:02:00,43.2,39.8,-100.00,WSW,257,4.2,7.4,88,0.08,,,1.00,WSDL version 423,2013-02-27 14:02:00,
2013-02-27 09:08:00,43.3,39.9,-100.00,West,265,3.5,8.7,88,-99.99,,,-99.99,WSDL version 423,2013-02-27 14:08:00,
2013-02-27 09:14:00,43.4,40.0,-100.00,West,273,3.0,8.7,88,0.04,,,1.00,WSDL version 423,2013-02-27 14:14:00,
2013-02-27 09:20:00,43.5,40.1,-100.00,West,278,4.9,9.6,88,0.04,,,1.00,WSDL version 423,2013-02-27 14:20:00,
2013-02-27 09:26:00,43.7,40.3,-100.00,West,278,3.7,9.6,88,0.04,,,1.00,WSDL version 423,2013-02-27 14:26:00,
2013-02-27 09:32:00,43.7,40.3,-100.00,WSW,250,3.0,6.5,88,0.04,,,1.00,WSDL version 423,2013-02-27 14:32:00,
2013-02-27 09:38:00,43.7,40.3,-100.00,WNW,287,3.4,6.5,88,0.00,,,1.00,WSDL version 423,2013-02-27 14:38:00,
2013-02-27 09:44:00,43.7,40.3,-100.00,WSW,258,1.9,6.5,88,0.00,,,1.00,WSDL version 423,2013-02-27 14:44:00,
2013-02-27 09:50:00,43.9,40.5,-100.00,WNW,284,5.1,10.5,88,0.00,,,1.00,WSDL version 423,2013-02-27 14:50:00,
2013-02-27 09:56:00,43.9,40.5,-100.00,WSW,240,3.7,10.5,88,0.00,,,1.00,WSDL version 423,2013-02-27 14:56:00,
2013-02-27 10:02:00,43.9,40.2,-100.00,South,170,2.1,6.5,87,-99.99,,,-99.99,WSDL version 423,2013-02-27 15:02:00,
2013-02-27 10:08:00,43.9,40.2,-100.00,WNW,300,3.1,7.8,87,0.00,,,1.00,WSDL version 423,2013-02-27 15:08:00,
2013-02-27 10:14:00,43.9,40.2,-100.00,WNW,300,3.8,10.1,87,0.00,,,1.00,WSDL version 423,2013-02-27 15:14:00,
2013-02-27 10:20:00,43.9,40.2,-100.00,WSW,240,2.5,10.1,87,0.04,,,1.04,WSDL version 423,2013-02-27 15:20:00,
2013-02-27 10:26:00,43.9,40.2,-100.00,West,278,3.8,12.1,87,0.04,,,1.04,WSDL version 423,2013-02-27 15:26:00,
2013-02-27 10:32:00,43.7,40.0,-100.00,WSW,238,3.0,12.1,87,0.04,,,1.04,WSDL version 423,2013-02-27 15:32:00,
2013-02-27 10:38:00,43.8,40.2,-100.00,West,267,2.7,7.8,87,-99.99,,,-99.99,WSDL version 423,2013-02-27 15:38:00,
2013-02-27 10:44:00,43.9,40.2,-100.00,West,260,2.1,6.0,87,0.04,,,1.04,WSDL version 423,2013-02-27 15:44:00,
2013-02-27 10:50:00,44.0,40.3,-100.00,SW,228,1.7,4.0,87,0.04,,,1.04,WSDL version 423,2013-02-27 15:50:00,
2013-02-27 10:56:00,44.1,40.3,-100.00,West,259,1.3,4.0,87,0.04,,,1.04,WSDL version 423,2013-02-27 15:56:00,
2013-02-27 11:02:00,44.2,40.4,-100.00,WNW,287,1.8,3.8,86,0.04,,,1.04,WSDL version 423,2013-02-27 16:02:00,
2013-02-27 11:08:00,44.7,40.7,-100.00,WNW,283,2.3,6.0,86,0.04,,,1.04,WSDL version 423,2013-02-27 16:08:00,
2013-02-27 11:14:00,44.8,40.7,-100.00,WSW,253,2.7,5.6,86,0.04,,,1.04,WSDL version 423,2013-02-27 16:14:00,
2013-02-27 11:20:00,44.8,40.7,-100.00,SW,236,2.4,12.3,86,0.00,,,1.04,WSDL version 423,2013-02-27 16:20:00,
2013-02-27 11:26:00,45.0,41.1,-100.00,West,268,3.1,7.6,87,0.04,,,1.08,WSDL version 423,2013-02-27 16:26:00,
2013-02-27 11:32:00,45.0,41.2,-100.00,WNW,285,2.5,7.4,87,0.04,,,1.08,WSDL version 423,2013-02-27 16:32:00,
2013-02-27 11:38:00,45.1,41.1,-100.00,NNW,338,2.6,6.3,86,0.04,,,1.08,WSDL version 423,2013-02-27 16:38:00,
2013-02-27 11:44:00,45.2,41.2,-100.00,East,100,1.2,5.4,86,0.04,,,1.08,WSDL version 423,2013-02-27 16:44:00,
2013-02-27 11:50:00,45.3,41.3,-100.00,North,5,1.0,3.1,86,0.04,,,1.08,WSDL version 423,2013-02-27 16:50:00,
2013-02-27 11:56:00,45.2,41.1,-100.00,WSW,256,0.4,6.0,86,0.04,,,1.08,WSDL version 423,2013-02-27 16:56:00,
2013-02-27 12:02:00,45.1,41.1,-100.00,SW,233,0.3,2.5,86,0.04,,,1.08,WSDL version 423,2013-02-27 17:02:00,
2013-02-27 12:08:00,45.2,41.2,-100.00,SW,228,0.0,2.5,86,0.04,,,1.08,WSDL version 423,2013-02-27 17:08:00,
2013-02-27 12:14:00,45.5,41.5,-100.00,SW,225,0.2,2.0,86,0.04,,,1.08,WSDL version 423,2013-02-27 17:14:00,
2013-02-27 12:20:00,46.0,41.9,-100.00,West,264,0.3,2.2,86,0.04,,,1.08,WSDL version 423,2013-02-27 17:20:00,
2013-02-27 12:26:00,46.4,42.0,-100.00,NW,312,1.3,2.7,84,0.00,,,1.08,WSDL version 423,2013-02-27 17:26:00,
2013-02-27 12:32:00,46.7,42.3,-100.00,WNW,284,2.1,5.6,84,0.00,,,1.08,WSDL version 423,2013-02-27 17:32:00,
2013-02-27 12:38:00,46.6,42.1,-100.00,West,259,2.0,5.6,84,0.00,,,1.08,WSDL version 423,2013-02-27 17:38:00,
2013-02-27 12:44:00,46.8,42.4,-100.00,West,276,2.2,4.0,84,0.00,,,1.08,WSDL version 423,2013-02-27 17:44:00,
2013-02-27 12:50:00,46.8,42.2,-100.00,SW,236,1.4,3.6,83,0.00,,,1.08,WSDL version 423,2013-02-27 17:50:00,
2013-02-27 12:56:00,46.6,41.8,-100.00,WNW,293,2.6,4.3,83,0.00,,,1.08,WSDL version 423,2013-02-27 17:56:00,
2013-02-27 13:02:00,46.5,41.7,-100.00,WSW,242,2.0,4.3,83,0.00,,,1.08,WSDL version 423,2013-02-27 18:02:00,
2013-02-27 13:08:00,46.5,41.8,-100.00,SSE,160,0.0,4.0,83,0.00,,,1.08,WSDL version 423,2013-02-27 18:08:00,
2013-02-27 13:14:00,46.6,41.8,-100.00,West,270,0.9,2.7,83,0.00,,,1.08,WSDL version 423,2013-02-27 18:14:00,
2013-02-27 13:20:00,46.7,41.9,-100.00,South,186,0.0,2.7,83,0.00,,,1.08,WSDL version 423,2013-02-27 18:20:00,
2013-02-27 13:26:00,46.9,42.1,-100.00,WSW,238,1.6,3.1,83,0.00,,,1.08,WSDL version 423,2013-02-27 18:26:00,
2013-02-27 13:32:00,46.8,42.0,-100.00,South,188,1.4,3.1,83,0.00,,,1.08,WSDL version 423,2013-02-27 18:32:00,
2013-02-27 13:38:00,46.7,41.9,-100.00,SE,128,1.7,3.1,83,0.00,,,1.08,WSDL version 423,2013-02-27 18:38:00,
2013-02-27 13:44:00,46.6,41.8,-100.00,SE,135,1.0,2.9,83,0.00,,,1.08,WSDL version 423,2013-02-27 18:44:00,
2013-02-27 13:50:00,46.7,41.9,-100.00,SE,128,0.0,2.2,83,0.00,,,1.08,WSDL version 423,2013-02-27 18:50:00,
2013-02-27 13:56:00,46.9,42.5,-100.00,East,100,0.0,2.7,84,0.00,,,1.08,WSDL version 423,2013-02-27 18:56:00,
2013-02-27 14:02:00,47.1,42.6,-100.00,SE,139,0.7,2.2,84,0.00,,,1.08,WSDL version 423,2013-02-27 19:02:00,
2013-02-27 14:08:00,47.1,42.3,-100.00,East,101,0.0,2.5,83,0.00,,,1.08,WSDL version 423,2013-02-27 19:08:00,
2013-02-27 14:14:00,47.1,42.3,-100.00,ESE,110,1.0,2.7,83,0.00,,,1.08,WSDL version 423,2013-02-27 19:14:00,
2013-02-27 14:20:00,47.1,42.3,-100.00,East,93,1.4,4.5,83,0.00,,,1.08,WSDL version 423,2013-02-27 19:20:00,
2013-02-27 14:26:00,47.3,42.5,-100.00,East,101,1.2,4.0,83,0.00,,,1.08,WSDL version 423,2013-02-27 19:26:00,
2013-02-27 14:32:00,47.3,42.5,-100.00,East,90,1.3,2.7,83,0.00,,,1.08,WSDL version 423,2013-02-27 19:32:00,
2013-02-27 14:38:00,47.6,42.8,-100.00,East,100,1.2,2.5,83,0.00,,,1.08,WSDL version 423,2013-02-27 19:38:00,
2013-02-27 14:44:00,47.9,43.1,-100.00,SE,146,1.6,2.7,83,0.00,,,1.08,WSDL version 423,2013-02-27 19:44:00,
2013-02-27 14:50:00,48.7,43.9,-100.00,SE,127,1.0,3.8,83,0.00,,,1.08,WSDL version 423,2013-02-27 19:50:00,
2013-02-27 14:56:00,49.0,43.9,-100.00,ESE,120,1.2,5.8,82,0.00,,,1.08,WSDL version 423,2013-02-27 19:56:00,
2013-02-27 15:02:00,49.4,44.2,-100.00,ESE,118,0.9,5.8,82,0.00,,,1.08,WSDL version 423,2013-02-27 20:02:00,
2013-02-27 15:08:00,49.3,44.0,-100.00,SE,132,1.4,3.4,81,0.00,,,1.08,WSDL version 423,2013-02-27 20:08:00,
2013-02-27 15:14:00,49.1,43.6,-100.00,SSE,148,1.8,3.8,81,0.00,,,1.08,WSDL version 423,2013-02-27 20:14:00,
2013-02-27 15:20:00,48.9,43.4,-100.00,ESE,113,0.8,3.8,81,0.00,,,1.08,WSDL version 423,2013-02-27 20:20:00,
2013-02-27 15:26:00,48.9,43.4,-100.00,SE,129,0.6,3.4,81,0.00,,,1.08,WSDL version 423,2013-02-27 20:26:00,
2013-02-27 15:32:00,48.9,43.2,-100.00,SE,129,3.2,6.3,80,0.00,,,1.08,WSDL version 423,2013-02-27 20:32:00,
2013-02-27 15:38:00,48.7,42.9,-100.00,SE,135,2.7,6.3,80,0.00,,,1.08,WSDL version 423,2013-02-27 20:38:00,
2013-02-27 15:44:00,48.8,42.3,-100.00,SE,128,3.3,8.5,78,0.00,,,1.08,WSDL version 423,2013-02-27 20:44:00,
2013-02-27 15:50:00,48.9,42.2,-100.00,SE,129,2.6,8.5,77,0.00,,,1.08,WSDL version 423,2013-02-27 20:50:00,
2013-02-27 15:56:00,49.4,42.3,-100.00,SSE,163,3.6,6.0,76,0.00,,,1.08,WSDL version 423,2013-02-27 20:56:00,
2013-02-27 16:02:00,49.5,42.0,-100.00,East,100,2.0,6.3,75,0.00,,,1.08,WSDL version 423,2013-02-27 21:02:00,
2013-02-27 16:08:00,48.9,41.1,-100.00,SE,132,3.2,5.8,74,0.00,,,1.08,WSDL version 423,2013-02-27 21:08:00,
2013-02-27 16:14:00,48.8,40.7,-100.00,ESE,118,3.2,10.1,73,0.00,,,1.08,WSDL version 423,2013-02-27 21:14:00,
2013-02-27 16:20:00,48.9,40.9,-100.00,ESE,118,2.7,6.5,73,0.00,,,1.08,WSDL version 423,2013-02-27 21:20:00,
2013-02-27 16:26:00,48.8,40.4,-100.00,East,101,2.0,7.6,72,0.00,,,1.08,WSDL version 423,2013-02-27 21:26:00,
2013-02-27 16:32:00,48.7,39.5,-100.00,SE,146,4.7,10.1,69,0.00,,,1.08,WSDL version 423,2013-02-27 21:32:00,
2013-02-27 16:38:00,48.9,39.2,-100.00,ESE,118,5.1,8.5,69,0.00,,,1.08,WSDL version 423,2013-02-27 21:38:00,
2013-02-27 16:44:00,48.9,39.0,-100.00,ESE,123,3.1,8.5,68,0.00,,,1.08,WSDL version 423,2013-02-27 21:44:00,
2013-02-27 16:50:00,48.7,38.1,-100.00,SE,127,2.9,10.1,67,0.00,,,1.08,WSDL version 423,2013-02-27 21:50:00,
2013-02-27 16:56:00,48.4,37.4,-100.00,ESE,121,3.3,10.1,66,0.00,,,1.08,WSDL version 423,2013-02-27 21:56:00,
2013-02-27 17:02:00,48.2,37.7,-100.00,SE,129,4.1,9.8,67,0.00,,,1.08,WSDL version 423,2013-02-27 22:02:00,
2013-02-27 17:08:00,48.1,38.1,-100.00,East,98,0.9,9.8,68,0.00,,,1.08,WSDL version 423,2013-02-27 22:08:00,
2013-02-27 17:14:00,48.0,38.2,-100.00,East,101,2.6,4.7,69,0.00,,,1.08,WSDL version 423,2013-02-27 22:14:00,
2013-02-27 17:20:00,47.8,38.2,-100.00,ESE,108,3.4,6.5,69,0.00,,,1.08,WSDL version 423,2013-02-27 22:20:00,
2013-02-27 17:26:00,47.7,37.8,-100.00,SE,125,2.9,6.5,68,0.00,,,1.08,WSDL version 423,2013-02-27 22:26:00,
2013-02-27 17:32:00,47.5,37.5,-100.00,SE,124,2.6,6.5,68,0.00,,,1.08,WSDL version 423,2013-02-27 22:32:00,
2013-02-27 17:38:00,47.2,37.2,-100.00,SE,135,3.3,5.6,68,0.00,,,1.08,WSDL version 423,2013-02-27 22:38:00,
2013-02-27 17:44:00,46.7,36.4,-100.00,ESE,108,3.8,6.0,67,0.00,,,1.08,WSDL version 423,2013-02-27 22:44:00,
2013-02-27 17:50:00,46.3,36.2,-100.00,ESE,118,2.3,6.0,68,0.00,,,1.08,WSDL version 423,2013-02-27 22:50:00,
2013-02-27 17:56:00,45.9,36.3,-100.00,ESE,110,0.3,3.4,69,0.00,,,1.08,WSDL version 423,2013-02-27 22:56:00,
2013-02-27 18:02:00,45.5,36.3,-100.00,SE,125,1.0,2.9,70,0.00,,,1.08,WSDL version 423,2013-02-27 23:02:00,
2013-02-27 18:08:00,45.2,36.0,-100.00,ESE,105,1.8,6.5,70,0.00,,,1.08,WSDL version 423,2013-02-27 23:08:00,
2013-02-27 18:14:00,45.1,35.9,-100.00,East,101,1.3,6.5,70,0.00,,,1.08,WSDL version 423,2013-02-27 23:14:00,
2013-02-27 18:20:00,44.7,35.6,-100.00,ESE,106,1.5,3.1,70,0.00,,,1.08,WSDL version 423,2013-02-27 23:20:00,
2013-02-27 18:26:00,44.6,35.4,-100.00,SE,135,1.8,4.7,70,0.00,,,1.08,WSDL version 423,2013-02-27 23:26:00,
2013-02-27 18:32:00,44.7,35.5,-100.00,East,101,0.8,4.7,70,0.00,,,1.08,WSDL version 423,2013-02-27 23:32:00,
2013-02-27 18:38:00,44.8,35.6,-100.00,SE,127,1.6,4.3,70,0.00,,,1.08,WSDL version 423,2013-02-27 23:38:00,
2013-02-27 18:44:00,44.9,35.7,-100.00,ESE,113,1.3,4.3,70,0.00,,,1.08,WSDL version 423,2013-02-27 23:44:00,
2013-02-27 18:50:00,45.0,35.8,-100.00,ESE,105,1.9,4.0,70,0.00,,,1.08,WSDL version 423,2013-02-27 23:50:00,
2013-02-27 18:56:00,45.0,35.8,-100.00,ESE,109,1.2,4.0,70,0.00,,,1.08,WSDL version 423,2013-02-27 23:56:00,
2013-02-27 19:02:00,45.0,35.8,-100.00,SE,124,3.1,4.9,70,0.00,,,1.08,WSDL version 423,2013-02-28 00:02:00,
2013-02-27 19:08:00,45.0,35.8,-100.00,SE,146,1.6,4.9,70,0.00,,,1.08,WSDL version 423,2013-02-28 00:08:00,
2013-02-27 19:14:00,45.0,35.6,-100.00,SE,124,1.2,6.0,69,0.00,,,1.08,WSDL version 423,2013-02-28 00:14:00,
2013-02-27 19:20:00,45.1,35.6,-100.00,East,101,1.0,6.0,69,0.00,,,1.08,WSDL version 423,2013-02-28 00:20:00,
2013-02-27 19:26:00,45.1,35.6,-100.00,SE,129,3.2,7.2,69,0.00,,,1.08,WSDL version 423,2013-02-28 00:26:00,
2013-02-27 19:32:00,45.1,35.5,-100.00,SE,125,0.9,7.2,69,0.00,,,1.08,WSDL version 423,2013-02-28 00:32:00,
2013-02-27 19:38:00,44.8,35.3,-100.00,ESE,121,2.6,3.6,69,0.00,,,1.08,WSDL version 423,2013-02-28 00:38:00,
2013-02-27 19:44:00,44.8,35.2,-100.00,ESE,118,1.2,3.6,69,0.00,,,1.08,WSDL version 423,2013-02-28 00:44:00,
2013-02-27 19:50:00,44.8,35.0,-100.00,SE,138,4.2,5.8,67,0.00,,,1.08,WSDL version 423,2013-02-28 00:50:00,
2013-02-27 19:56:00,45.0,35.0,-100.00,ESE,115,4.2,8.5,68,0.00,,,1.08,WSDL version 423,2013-02-28 00:56:00,
2013-02-27 20:02:00,45.0,34.8,-100.00,SE,127,2.9,8.5,67,0.00,,,1.08,WSDL version 423,2013-02-28 01:02:00,
2013-02-27 20:08:00,44.9,34.5,-100.00,ESE,104,2.3,5.4,67,0.00,,,1.08,WSDL version 423,2013-02-28 01:08:00,
2013-02-27 20:14:00,44.7,34.4,-100.00,ESE,121,1.9,5.4,67,0.00,,,1.08,WSDL version 423,2013-02-28 01:14:00,
2013-02-27 20:20:00,44.6,34.3,-100.00,East,96,3.2,8.5,67,0.00,,,1.08,WSDL version 423,2013-02-28 01:20:00,
2013-02-27 20:26:00,44.6,34.0,-100.00,ESE,118,3.0,8.5,66,0.00,,,1.08,WSDL version 423,2013-02-28 01:26:00,
2013-02-27 20:32:00,44.8,34.1,-100.00,ESE,108,3.3,11.0,66,0.00,,,1.08,WSDL version 423,2013-02-28 01:32:00,
2013-02-27 20:38:00,44.5,34.0,-100.00,ESE,115,1.5,4.9,67,0.00,,,1.08,WSDL version 423,2013-02-28 01:38:00,
2013-02-27 20:44:00,44.1,34.0,-100.00,ESE,115,0.2,4.9,68,0.00,,,1.08,WSDL version 423,2013-02-28 01:44:00,
2013-02-27 20:50:00,43.9,34.1,-100.00,SE,133,1.1,4.0,68,0.00,,,1.08,WSDL version 423,2013-02-28 01:50:00,
2013-02-27 20:56:00,44.1,34.2,-100.00,SE,132,1.4,4.0,68,0.00,,,1.08,WSDL version 423,2013-02-28 01:56:00,
2013-02-27 21:02:00,44.2,34.4,-100.00,ESE,116,1.9,4.0,68,0.00,,,1.08,WSDL version 423,2013-02-28 02:02:00,
2013-02-27 21:08:00,44.4,34.4,-100.00,ESE,113,2.0,4.0,67,0.00,,,1.08,WSDL version 423,2013-02-28 02:08:00,
2013-02-27 21:14:00,44.6,34.2,-100.00,ESE,107,1.0,3.1,67,0.00,,,1.08,WSDL version 423,2013-02-28 02:14:00,
2013-02-27 21:20:00,44.6,34.3,-100.00,ESE,113,0.8,3.6,67,0.00,,,1.08,WSDL version 423,2013-02-28 02:20:00,
2013-02-27 21:26:00,44.6,34.2,-100.00,SE,135,1.6,3.4,67,0.00,,,1.08,WSDL version 423,2013-02-28 02:26:00,
2013-02-27 21:32:00,44.6,34.2,-100.00,ESE,123,0.3,3.1,67,0.00,,,1.08,WSDL version 423,2013-02-28 02:32:00,
2013-02-27 21:38:00,44.5,34.2,-100.00,ESE,120,1.2,2.7,67,0.00,,,1.08,WSDL version 423,2013-02-28 02:38:00,
2013-02-27 21:44:00,44.4,34.1,-100.00,ESE,103,0.0,1.6,67,0.00,,,1.08,WSDL version 423,2013-02-28 02:44:00,
2013-02-27 21:50:00,44.1,34.2,-100.00,ESE,113,0.0,1.1,68,0.00,,,1.08,WSDL version 423,2013-02-28 02:50:00,
2013-02-27 21:56:00,43.6,33.7,-100.00,East,98,0.0,1.1,68,0.00,,,1.08,WSDL version 423,2013-02-28 02:56:00,
2013-02-27 22:02:00,43.0,33.2,-100.00,ESE,113,0.0,1.1,68,0.00,,,1.08,WSDL version 423,2013-02-28 03:02:00,
2013-02-27 22:08:00,42.8,33.3,-100.00,ESE,113,0.0,0.9,69,0.00,,,1.08,WSDL version 423,2013-02-28 03:08:00,
2013-02-27 22:14:00,42.8,33.3,-100.00,ESE,113,0.0,0.9,69,0.00,,,1.08,WSDL version 423,2013-02-28 03:14:00,
2013-02-27 22:20:00,42.7,33.4,-100.00,SSE,158,0.0,0.0,70,0.00,,,1.08,WSDL version 423,2013-02-28 03:20:00,
2013-02-27 22:26:00,42.6,33.5,-100.00,SSE,158,0.0,0.0,70,0.00,,,1.08,WSDL version 423,2013-02-28 03:26:00,
2013-02-27 22:32:00,42.8,33.7,-100.00,NNE,28,0.0,0.0,70,0.00,,,1.08,WSDL version 423,2013-02-28 03:32:00,
2013-02-27 22:38:00,42.7,33.6,-100.00,North,360,0.0,0.0,70,0.00,,,1.08,WSDL version 423,2013-02-28 03:38:00,
2013-02-27 22:44:00,42.4,33.6,-100.00,West,278,0.0,0.0,71,0.00,,,1.08,WSDL version 423,2013-02-28 03:44:00,
2013-02-27 22:50:00,42.4,33.7,-100.00,SW,225,0.0,0.0,71,0.00,,,1.08,WSDL version 423,2013-02-28 03:50:00,
2013-02-27 22:56:00,42.4,33.7,-100.00,WSW,250,0.0,0.0,71,0.00,,,1.08,WSDL version 423,2013-02-28 03:56:00,
2013-02-27 23:02:00,42.6,33.9,-100.00,SSW,195,0.0,0.0,71,0.00,,,1.08,WSDL version 423,2013-02-28 04:02:00,
2013-02-27 23:08:00,42.6,33.9,-100.00,SE,135,0.0,0.0,71,0.00,,,1.08,WSDL version 423,2013-02-28 04:08:00,
2013-02-27 23:14:00,42.6,33.9,-100.00,SE,135,0.0,0.0,71,0.00,,,1.08,WSDL version 423,2013-02-28 04:14:00,
2013-02-27 23:20:00,42.4,33.7,-100.00,SE,135,0.0,0.0,71,0.00,,,1.08,WSDL version 423,2013-02-28 04:20:00,
2013-02-27 23:26:00,42.4,33.7,-100.00,SE,135,0.0,0.0,71,0.00,,,1.08,WSDL version 423,2013-02-28 04:26:00,
2013-02-27 23:32:00,42.4,33.7,-100.00,SE,135,0.0,0.0,71,0.00,,,1.08,WSDL version 423,2013-02-28 04:32:00,
2013-02-27 23:38:00,42.4,34.0,-100.00,SE,135,0.0,0.0,72,0.00,,,1.08,WSDL version 423,2013-02-28 04:38:00,
2013-02-27 23:44:00,42.4,34.1,-100.00,SE,135,0.0,0.0,72,0.00,,,1.08,WSDL version 423,2013-02-28 04:44:00,
2013-02-27 23:50:00,42.4,34.1,-100.00,SE,135,0.0,0.0,72,0.00,,,1.08,WSDL version 423,2013-02-28 04:50:00,
2013-02-27 23:56:00,42.4,34.1,-100.00,SE,135,0.0,0.0,72,0.00,,,1.08,WSDL version 423,2013-02-28 04:56:00,